createdAt,value
2019-02-11T00:02:12.526Z,97163.19
2019-02-11T00:04:40.822Z,97168.72
2019-02-11T00:07:09.149Z,97174.42
2019-02-11T00:09:37.443Z,97167.35
2019-02-11T00:12:05.762Z,97169.47
2019-02-11T00:14:34.059Z,97172.95
2019-02-11T00:17:02.374Z,97167.28
2019-02-11T00:19:30.814Z,97165.95
2019-02-11T00:21:59.593Z,97165.48
2019-02-11T00:24:27.889Z,97158.58
2019-02-11T00:26:56.196Z,97144.03
2019-02-11T00:29:24.567Z,97138.50
2019-02-11T00:31:52.883Z,97142.37
2019-02-11T00:34:21.184Z,97142.62
2019-02-11T00:36:49.500Z,97130.54
2019-02-11T00:39:18.159Z,97137.19
2019-02-11T00:41:46.479Z,97141.23
2019-02-11T00:44:14.778Z,97147.84
2019-02-11T00:46:43.105Z,97149.19
2019-02-11T00:49:11.688Z,97154.19
2019-02-11T00:51:39.985Z,97154.95
2019-02-11T00:54:08.714Z,97148.95
2019-02-11T00:56:37.017Z,97126.33
2019-02-11T00:59:05.332Z,97136.22
2019-02-11T01:01:33.635Z,97133.66
2019-02-11T01:04:02.016Z,97137.61
2019-02-11T01:06:30.309Z,97130.03
2019-02-11T01:08:58.635Z,97132.52
2019-02-11T01:11:26.926Z,97113.33
2019-02-11T01:13:55.407Z,97139.17
2019-02-11T01:16:23.794Z,97123.98
2019-02-11T01:18:52.106Z,97124.10
2019-02-11T01:21:20.403Z,97128.69
2019-02-11T01:23:49.034Z,97118.84
2019-02-11T01:26:17.357Z,97116.31
2019-02-11T01:28:45.664Z,97120.66
2019-02-11T01:31:14.282Z,97114.72
2019-02-11T01:33:42.600Z,97116.23
2019-02-11T01:36:10.903Z,97128.98
2019-02-11T01:38:39.216Z,97133.52
2019-02-11T01:41:07.506Z,97135.53
2019-02-11T01:43:36.379Z,97140.17
2019-02-11T01:46:04.978Z,97138.78
2019-02-11T01:48:33.296Z,97135.42
2019-02-11T01:51:01.592Z,97134.66
2019-02-11T01:53:29.902Z,97139.12
2019-02-11T01:55:58.276Z,97152.17
2019-02-11T01:58:26.589Z,97126.87
2019-02-11T02:00:54.962Z,97152.75
2019-02-11T02:03:23.272Z,97158.95
2019-02-11T02:05:51.571Z,97156.59
2019-02-11T02:08:19.891Z,97141.64
2019-02-11T02:10:48.595Z,97165.79
2019-02-11T02:13:16.911Z,97147.48
2019-02-11T02:15:45.212Z,97149.75
2019-02-11T02:18:13.522Z,97156.94
2019-02-11T02:20:41.823Z,97153.91
2019-02-11T02:23:10.137Z,97154.48
2019-02-11T02:25:38.429Z,97153.91
2019-02-11T02:28:06.729Z,97153.61
2019-02-11T02:30:35.194Z,97157.23
2019-02-11T02:33:03.494Z,97147.71
2019-02-11T02:35:31.822Z,97153.38
2019-02-11T02:38:00.113Z,97137.34
2019-02-11T02:40:28.453Z,97142.31
2019-02-11T02:42:56.755Z,97142.91
2019-02-11T02:45:25.066Z,97172.56
2019-02-11T02:47:53.355Z,97160.70
2019-02-11T02:50:21.675Z,97208.05
2019-02-11T02:52:49.975Z,97164.95
2019-02-11T02:55:18.442Z,97158.55
2019-02-11T02:57:47.139Z,97188.59
2019-02-11T03:00:15.516Z,97181.64
2019-02-11T03:02:43.808Z,97178.97
2019-02-11T03:05:12.191Z,97189.73
2019-02-11T03:07:40.487Z,97166.69
2019-02-11T03:10:11.053Z,97181.73
2019-02-11T03:12:39.355Z,97185.11
2019-02-11T03:15:10.184Z,97193.64
2019-02-11T03:17:38.472Z,97166.31
2019-02-11T03:20:09.128Z,97166.31
2019-02-11T03:22:37.432Z,97177.03
2019-02-11T03:25:09.032Z,97178.91
2019-02-11T03:27:37.326Z,97157.22
2019-02-11T03:30:10.505Z,97172.16
2019-02-11T03:32:38.846Z,97157.71
2019-02-11T03:35:07.892Z,97157.50
2019-02-11T03:37:36.189Z,97168.34
2019-02-11T03:40:07.541Z,97145.98
2019-02-11T03:42:35.845Z,97153.12
2019-02-11T03:45:07.278Z,97152.30
2019-02-11T03:47:35.580Z,97162.48
2019-02-11T03:50:05.728Z,97181.23
2019-02-11T03:52:34.024Z,97150.16
2019-02-11T03:55:02.349Z,97161.34
2019-02-11T03:57:31.050Z,97181.09
2019-02-11T03:59:59.372Z,97176.98
2019-02-11T04:02:27.733Z,97168.06
2019-02-11T04:04:56.052Z,97173.00
2019-02-11T04:07:24.414Z,97175.16
2019-02-11T04:09:52.717Z,97190.77
2019-02-11T04:12:21.026Z,97237.59
2019-02-11T04:14:49.319Z,97222.16
2019-02-11T04:17:17.631Z,97212.31
2019-02-11T04:19:45.927Z,97220.81
2019-02-11T04:22:14.842Z,97208.80
2019-02-11T04:24:43.216Z,97215.92
2019-02-11T04:27:11.545Z,97229.20
2019-02-11T04:29:39.837Z,97226.18
2019-02-11T04:32:08.151Z,97237.02
2019-02-11T04:34:36.450Z,97223.34
2019-02-11T04:37:05.131Z,97209.48
2019-02-11T04:39:33.429Z,97215.92
2019-02-11T04:42:02.019Z,97213.03
2019-02-11T04:44:33.937Z,97219.34
2019-02-11T04:47:00.351Z,97223.25
2019-02-11T04:49:28.649Z,97252.04
2019-02-11T04:51:58.894Z,97210.48
2019-02-11T04:54:26.986Z,97206.77
2019-02-11T04:56:55.304Z,97184.34
2019-02-11T04:59:23.602Z,97181.77
2019-02-11T05:01:51.916Z,97170.30
2019-02-11T05:04:20.205Z,97175.48
2019-02-11T05:06:48.527Z,97198.19
2019-02-11T05:09:16.809Z,97184.19
2019-02-11T05:11:45.122Z,97213.84
2019-02-11T05:14:13.420Z,97190.77
2019-02-11T05:16:42.027Z,97205.36
2019-02-11T05:19:10.320Z,97231.69
2019-02-11T05:21:38.975Z,97206.62
2019-02-11T05:24:07.270Z,97198.58
2019-02-11T05:26:35.583Z,97222.57
2019-02-11T05:29:03.891Z,97223.80
2019-02-11T05:31:32.939Z,97227.34
2019-02-11T05:34:01.275Z,97226.13
2019-02-11T05:36:29.586Z,97231.70
2019-02-11T05:38:57.894Z,97236.64
2019-02-11T05:41:26.174Z,97233.67
2019-02-11T05:43:54.485Z,97249.69
2019-02-11T05:46:23.053Z,97256.06
2019-02-11T05:48:51.367Z,97264.06
2019-02-11T05:51:19.653Z,97273.05
2019-02-11T05:53:47.971Z,97298.06
2019-02-11T05:56:16.273Z,97294.91
2019-02-11T05:58:44.583Z,97304.27
2019-02-11T06:01:12.878Z,97307.16
2019-02-11T06:03:41.192Z,97311.70
2019-02-11T06:06:09.487Z,97328.32
2019-02-11T06:08:37.806Z,97349.94
2019-02-11T06:11:06.398Z,97336.02
2019-02-11T06:13:34.723Z,97347.44
2019-02-11T06:16:03.023Z,97344.48
2019-02-11T06:18:31.329Z,97354.43
2019-02-11T06:20:59.630Z,97365.50
2019-02-11T06:23:29.662Z,97360.12
2019-02-11T06:25:58.118Z,97380.08
2019-02-11T06:28:26.708Z,97386.77
2019-02-11T06:30:55.067Z,97389.93
2019-02-11T06:33:23.380Z,97397.55
2019-02-11T06:35:51.685Z,97417.97
2019-02-11T06:38:20.129Z,97401.42
2019-02-11T06:40:48.850Z,97407.88
2019-02-11T06:43:17.212Z,97421.44
2019-02-11T06:45:45.573Z,97416.06
2019-02-11T06:48:13.972Z,97418.09
2019-02-11T06:50:42.278Z,97420.71
2019-02-11T06:53:10.595Z,97422.85
2019-02-11T06:55:38.895Z,97417.72
2019-02-11T06:58:07.207Z,97416.41
2019-02-11T07:00:36.387Z,97423.20
2019-02-11T07:03:04.706Z,97426.02
2019-02-11T07:05:33.007Z,97448.00
2019-02-11T07:08:01.388Z,97446.31
2019-02-11T07:10:30.015Z,97451.58
2019-02-11T07:12:58.309Z,97445.59
2019-02-11T07:15:26.623Z,97461.73
2019-02-11T07:17:55.607Z,97467.72
2019-02-11T07:20:24.261Z,97464.34
2019-02-11T07:22:52.555Z,97472.77
2019-02-11T07:25:20.934Z,97473.91
2019-02-11T07:27:49.238Z,97466.48
2019-02-11T07:30:17.614Z,97475.03
2019-02-11T07:32:45.910Z,97499.58
2019-02-11T07:35:14.348Z,97481.09
2019-02-11T07:37:42.935Z,97480.55
2019-02-11T07:40:12.089Z,97473.92
2019-02-11T07:42:44.907Z,97483.55
2019-02-11T07:45:14.930Z,97490.05
2019-02-11T07:47:43.227Z,97506.59
2019-02-11T07:50:11.613Z,97506.30
2019-02-11T07:52:39.915Z,97513.26
2019-02-11T07:55:08.576Z,97521.97
2019-02-11T07:57:36.937Z,97546.04
2019-02-11T08:00:07.286Z,97523.01
2019-02-11T08:02:35.964Z,97538.21
2019-02-11T08:05:05.914Z,97555.66
2019-02-11T08:07:34.211Z,97569.93
2019-02-11T08:10:02.522Z,97549.69
2019-02-11T08:12:30.905Z,97555.23
2019-02-11T08:14:59.308Z,97566.30
2019-02-11T08:17:27.604Z,97579.38
2019-02-11T08:19:55.926Z,97573.30
2019-02-11T08:22:24.226Z,97581.23
2019-02-11T08:24:52.598Z,97600.16
2019-02-11T08:27:20.897Z,97604.50
2019-02-11T08:29:49.208Z,97613.88
2019-02-11T08:32:17.569Z,97610.81
2019-02-11T08:34:45.881Z,97622.16
2019-02-11T08:37:14.183Z,97626.05
2019-02-11T08:39:42.625Z,97615.53
2019-02-11T08:42:10.920Z,97626.28
2019-02-11T08:44:39.217Z,97650.47
2019-02-11T08:47:07.533Z,97617.11
2019-02-11T08:49:35.832Z,97631.75
2019-02-11T08:52:04.142Z,97618.02
2019-02-11T08:54:32.445Z,97646.86
2019-02-11T08:57:00.763Z,97647.41
2019-02-11T08:59:29.058Z,97666.31
2019-02-11T09:01:57.375Z,97668.17
2019-02-11T09:04:25.677Z,97672.88
2019-02-11T09:06:53.985Z,97679.36
2019-02-11T09:09:22.280Z,97681.44
2019-02-11T09:11:50.600Z,97696.33
2019-02-11T09:14:18.975Z,97705.66
2019-02-11T09:16:47.291Z,97663.31
2019-02-11T09:19:15.579Z,97703.34
2019-02-11T09:21:44.217Z,97682.28
2019-02-11T09:24:12.519Z,97667.78
2019-02-11T09:26:40.835Z,97680.47
2019-02-11T09:29:09.132Z,97652.89
2019-02-11T09:31:37.448Z,97688.54
2019-02-11T09:34:05.811Z,97690.13
2019-02-11T09:36:34.118Z,97695.66
2019-02-11T09:39:02.422Z,97714.16
2019-02-11T09:41:32.239Z,97726.70
2019-02-11T09:44:00.729Z,97720.36
2019-02-11T09:46:29.438Z,97705.64
2019-02-11T09:48:57.737Z,97734.06
2019-02-11T09:51:27.188Z,97747.66
2019-02-11T09:53:55.755Z,97739.52
2019-02-11T09:56:24.141Z,97749.21
2019-02-11T09:58:52.435Z,97795.36
2019-02-11T10:01:20.822Z,97781.20
2019-02-11T10:03:49.194Z,97766.20
2019-02-11T10:06:17.507Z,97781.52
2019-02-11T10:08:45.869Z,97794.73
2019-02-11T10:11:14.240Z,97797.02
2019-02-11T10:13:42.551Z,97776.15
2019-02-11T10:16:12.566Z,97802.14
2019-02-11T10:18:41.164Z,97784.44
2019-02-11T10:21:09.844Z,97786.38
2019-02-11T10:23:38.160Z,97806.82
2019-02-11T10:26:06.724Z,97808.03
2019-02-11T10:28:35.043Z,97797.02
2019-02-11T10:31:03.341Z,97815.92
2019-02-11T10:33:32.064Z,97824.67
2019-02-11T10:36:00.363Z,97814.47
2019-02-11T10:38:36.117Z,97810.73
2019-02-11T10:40:58.702Z,97843.00
2019-02-11T10:43:27.014Z,97835.58
2019-02-11T10:45:55.661Z,97835.13
2019-02-11T10:48:25.496Z,97852.53
2019-02-11T10:50:54.045Z,97839.02
2019-02-11T10:53:22.361Z,97866.31
2019-02-11T10:55:50.651Z,97871.65
2019-02-11T10:58:18.959Z,97875.66
2019-02-11T11:00:47.431Z,97889.47
2019-02-11T11:03:15.851Z,97883.39
2019-02-11T11:05:44.137Z,97878.72
2019-02-11T11:08:12.464Z,97894.78
2019-02-11T11:10:40.847Z,97879.73
2019-02-11T11:13:09.228Z,97929.13
2019-02-11T11:15:37.605Z,97897.66
2019-02-11T11:18:06.959Z,97909.77
2019-02-11T11:20:35.526Z,97892.86
2019-02-11T11:23:03.843Z,97903.63
2019-02-11T11:25:32.140Z,97903.40
2019-02-11T11:28:00.452Z,97942.67
2019-02-11T11:30:28.825Z,97894.75
2019-02-11T11:32:57.206Z,97927.58
2019-02-11T11:35:26.201Z,97890.37
2019-02-11T11:37:54.524Z,97907.45
2019-02-11T11:40:23.968Z,97913.25
2019-02-11T11:42:52.417Z,97905.98
2019-02-11T11:45:21.355Z,97914.39
2019-02-11T11:47:49.716Z,97923.46
2019-02-11T11:50:18.304Z,97924.97
2019-02-11T11:52:46.607Z,97948.03
2019-02-11T11:55:20.995Z,97921.52
2019-02-11T11:57:49.272Z,97958.75
2019-02-11T12:00:27.141Z,97966.16
2019-02-11T12:03:02.875Z,97958.37
2019-02-11T12:05:27.279Z,97957.53
2019-02-11T12:07:55.948Z,97952.30
2019-02-11T12:10:24.326Z,97960.97
2019-02-11T12:12:52.683Z,97960.66
2019-02-11T12:15:23.166Z,97956.66
2019-02-11T12:17:51.957Z,97960.95
2019-02-11T12:20:20.277Z,97970.52
2019-02-11T12:22:48.555Z,97957.64
2019-02-11T12:25:18.214Z,97981.69
2019-02-11T12:27:46.614Z,97987.98
2019-02-11T12:30:23.633Z,97979.47
2019-02-11T12:32:54.828Z,97987.06
2019-02-11T12:35:22.310Z,97991.58
2019-02-11T12:37:51.027Z,97995.47
2019-02-11T12:40:19.725Z,98014.05
2019-02-11T12:42:48.340Z,98030.27
2019-02-11T12:45:19.402Z,98009.59
2019-02-11T12:47:47.698Z,98008.38
2019-02-11T12:50:17.815Z,98013.89
2019-02-11T12:52:46.503Z,98031.34
2019-02-11T12:55:16.375Z,98026.58
2019-02-11T12:57:44.731Z,98016.10
2019-02-11T13:00:21.568Z,98013.10
2019-02-11T13:02:50.094Z,98018.67
2019-02-11T13:05:23.095Z,98054.27
2019-02-11T13:07:49.127Z,98045.33
2019-02-11T13:10:21.257Z,98054.52
2019-02-11T13:12:49.795Z,98051.73
2019-02-11T13:15:58.660Z,98033.59
2019-02-11T13:17:50.042Z,98048.16
2019-02-11T13:20:19.338Z,98058.43
2019-02-11T13:22:48.019Z,98066.75
2019-02-11T13:25:17.599Z,98072.67
2019-02-11T13:27:46.021Z,98059.45
2019-02-11T13:30:20.255Z,98070.84
2019-02-11T13:32:48.864Z,98079.31
2019-02-11T13:35:17.719Z,98063.78
2019-02-11T13:37:46.313Z,98063.78
2019-02-11T13:40:14.989Z,98087.63
2019-02-11T13:42:44.057Z,98085.88
2019-02-11T13:45:20.805Z,98086.16
2019-02-11T13:47:54.771Z,98084.28
2019-02-11T13:50:24.664Z,98098.03
2019-02-11T13:52:53.024Z,98102.71
2019-02-11T13:55:22.083Z,98108.48
2019-02-11T13:57:50.717Z,98110.06
2019-02-11T14:00:34.462Z,98121.15
2019-02-11T14:03:05.375Z,98114.05
2019-02-11T14:05:34.134Z,98131.89
2019-02-11T14:08:02.817Z,98125.64
2019-02-11T14:10:31.291Z,98151.50
2019-02-11T14:13:00.243Z,98143.55
2019-02-11T14:15:28.574Z,98159.25
2019-02-11T14:18:11.561Z,98166.55
2019-02-11T14:20:30.723Z,98166.27
2019-02-11T14:22:59.045Z,98175.22
2019-02-11T14:25:42.102Z,98176.84
2019-02-11T14:27:57.955Z,98182.42
2019-02-11T14:30:26.264Z,98181.36
2019-02-11T14:32:54.566Z,98172.48
2019-02-11T14:35:22.865Z,98202.31
2019-02-11T14:37:51.283Z,98195.09
2019-02-11T14:40:19.635Z,98202.77
2019-02-11T14:42:48.025Z,98189.45
2019-02-11T14:45:18.633Z,98222.70
2019-02-11T14:47:46.950Z,98230.78
2019-02-11T14:50:15.305Z,98217.30
2019-02-11T14:52:43.681Z,98218.59
2019-02-11T14:55:12.225Z,98227.81
2019-02-11T14:57:40.543Z,98235.08
2019-02-11T15:00:18.687Z,98231.95
2019-02-11T15:02:47.001Z,98238.97
2019-02-11T15:05:16.328Z,98258.56
2019-02-11T15:07:44.918Z,98256.70
2019-02-11T15:10:13.747Z,98260.08
2019-02-11T15:12:42.398Z,98287.75
2019-02-11T15:15:12.632Z,98271.36
2019-02-11T15:17:42.584Z,98287.22
2019-02-11T15:20:13.043Z,98289.20
2019-02-11T15:22:41.343Z,98288.03
2019-02-11T15:25:12.251Z,98286.69
2019-02-11T15:27:40.635Z,98301.98
2019-02-11T15:30:12.144Z,98313.88
2019-02-11T15:32:40.461Z,98299.02
2019-02-11T15:35:09.327Z,98318.13
2019-02-11T15:37:37.640Z,98318.13
2019-02-11T15:40:09.339Z,98319.11
2019-02-11T15:42:37.668Z,98328.34
2019-02-11T15:45:09.176Z,98336.28
2019-02-11T15:47:37.732Z,98323.53
2019-02-11T15:50:11.479Z,98326.75
2019-02-11T15:52:40.445Z,98361.52
2019-02-11T15:55:11.615Z,98342.62
2019-02-11T15:57:40.309Z,98358.67
2019-02-11T16:00:11.710Z,98341.42
2019-02-11T16:02:40.096Z,98351.30
2019-02-11T16:05:15.822Z,98354.52
2019-02-11T16:07:39.984Z,98355.41
2019-02-11T16:10:14.506Z,98354.44
2019-02-11T16:12:42.894Z,98356.08
2019-02-11T16:15:12.848Z,98404.33
2019-02-11T16:17:41.498Z,98394.53
2019-02-11T16:20:14.431Z,98395.83
2019-02-11T16:22:42.511Z,98397.64
2019-02-11T16:25:13.449Z,98425.29
2019-02-11T16:27:41.989Z,98413.49
2019-02-11T16:30:19.461Z,98411.38
2019-02-11T16:32:47.770Z,98422.95
2019-02-11T16:35:18.322Z,98440.20
2019-02-11T16:37:46.872Z,98464.58
2019-02-11T16:40:20.589Z,98464.48
2019-02-11T16:42:48.900Z,98445.39
2019-02-11T16:45:17.211Z,98463.33
2019-02-11T16:47:45.727Z,98473.47
2019-02-11T16:50:14.517Z,98474.32
2019-02-11T16:52:43.749Z,98484.67
2019-02-11T16:55:12.834Z,98476.80
2019-02-11T16:57:41.210Z,98498.05
2019-02-11T17:00:15.301Z,98503.16
2019-02-11T17:02:43.705Z,98507.52
2019-02-11T17:05:12.493Z,98511.70
2019-02-11T17:07:42.263Z,98531.75
2019-02-11T17:10:12.495Z,98533.81
2019-02-11T17:12:40.784Z,98561.66
2019-02-11T17:15:12.338Z,98534.98
2019-02-11T17:17:40.649Z,98551.13
2019-02-11T17:20:11.296Z,98545.50
2019-02-11T17:22:39.964Z,98534.50
2019-02-11T17:25:10.531Z,98542.66
2019-02-11T17:27:38.836Z,98546.00
2019-02-11T17:30:28.522Z,98549.64
2019-02-11T17:32:56.822Z,98562.26
2019-02-11T17:35:25.221Z,98555.89
2019-02-11T17:37:53.610Z,98569.93
2019-02-11T17:40:21.934Z,98581.24
2019-02-11T17:42:50.387Z,98575.02
2019-02-11T17:45:21.520Z,98561.23
2019-02-11T17:47:50.546Z,98582.77
2019-02-11T17:50:18.868Z,98584.13
2019-02-11T17:52:47.609Z,98590.55
2019-02-11T17:55:16.000Z,98579.30
2019-02-11T17:57:44.307Z,98585.09
2019-02-11T18:00:17.668Z,98592.08
2019-02-11T18:02:45.972Z,98585.59
2019-02-11T18:05:14.303Z,98585.00
2019-02-11T18:07:42.727Z,98578.61
2019-02-11T18:10:11.113Z,98583.77
2019-02-11T18:12:39.479Z,98595.44
2019-02-11T18:15:10.718Z,98582.84
2019-02-11T18:17:39.013Z,98589.23
2019-02-11T18:20:09.273Z,98591.73
2019-02-11T18:22:37.655Z,98595.98
2019-02-11T18:25:08.202Z,98603.98
2019-02-11T18:27:36.959Z,98604.58
2019-02-11T18:30:09.895Z,98578.33
2019-02-11T18:32:38.475Z,98593.30
2019-02-11T18:35:10.043Z,98593.95
2019-02-11T18:37:38.367Z,98608.64
2019-02-11T18:40:15.051Z,98600.00
2019-02-11T18:42:44.435Z,98606.77
2019-02-11T18:45:15.028Z,98613.06
2019-02-11T18:47:43.715Z,98628.81
2019-02-11T18:50:15.993Z,98637.17
2019-02-11T18:52:44.446Z,98625.94
2019-02-11T18:55:17.979Z,98635.72
2019-02-11T18:57:46.926Z,98629.14
2019-02-11T19:00:18.809Z,98636.84
2019-02-11T19:02:48.376Z,98636.84
2019-02-11T19:05:17.551Z,98639.08
2019-02-11T19:07:45.999Z,98641.16
2019-02-11T19:10:18.723Z,98639.11
2019-02-11T19:12:47.203Z,98640.36
2019-02-11T19:15:17.047Z,98633.22
2019-02-11T19:17:45.901Z,98651.08
2019-02-11T19:20:16.447Z,98662.38
2019-02-11T19:22:44.763Z,98658.34
2019-02-11T19:25:13.431Z,98656.12
2019-02-11T19:27:41.894Z,98666.63
2019-02-11T19:30:22.407Z,98666.79
2019-02-11T19:32:50.791Z,98652.21
2019-02-11T19:35:19.546Z,98677.09
2019-02-11T19:37:48.016Z,98661.24
2019-02-11T19:40:18.645Z,98662.89
2019-02-11T19:42:47.346Z,98660.94
2019-02-11T19:45:18.814Z,98675.49
2019-02-11T19:47:47.200Z,98664.75
2019-02-11T19:50:17.048Z,98693.19
2019-02-11T19:52:45.804Z,98693.69
2019-02-11T19:55:15.644Z,98680.02
2019-02-11T19:57:44.111Z,98688.66
2019-02-11T20:00:18.508Z,98650.41
2019-02-11T20:02:47.284Z,98680.98
2019-02-11T20:05:15.878Z,98697.23
2019-02-11T20:07:44.185Z,98691.09
2019-02-11T20:10:18.284Z,98699.33
2019-02-11T20:12:46.614Z,98711.25
2019-02-11T20:15:17.153Z,98713.16
2019-02-11T20:17:45.997Z,98719.59
2019-02-11T20:20:17.002Z,98727.29
2019-02-11T20:22:45.422Z,98728.78
2019-02-11T20:25:13.720Z,98728.89
2019-02-11T20:27:42.233Z,98721.22
2019-02-11T20:30:16.699Z,98723.11
2019-02-11T20:32:45.074Z,98722.61
2019-02-11T20:35:13.370Z,98724.05
2019-02-11T20:37:41.690Z,98721.53
2019-02-11T20:40:18.541Z,98716.54
2019-02-11T20:42:46.968Z,98718.16
2019-02-11T20:45:18.353Z,98733.84
2019-02-11T20:47:46.860Z,98737.28
2019-02-11T20:50:15.445Z,98751.09
2019-02-11T20:52:43.819Z,98751.75
2019-02-11T20:55:13.798Z,98753.15
2019-02-11T20:57:43.034Z,98751.75
2019-02-11T21:00:20.620Z,98761.95
2019-02-11T21:02:49.003Z,98755.05
2019-02-11T21:05:17.795Z,98755.18
2019-02-11T21:07:46.098Z,98750.55
2019-02-11T21:10:16.926Z,98758.56
2019-02-11T21:12:46.949Z,98770.75
2019-02-11T21:15:16.813Z,98781.78
2019-02-11T21:17:45.579Z,98773.22
2019-02-11T21:20:20.015Z,98784.19
2019-02-11T21:22:48.560Z,98760.58
2019-02-11T21:25:16.878Z,98764.91
2019-02-11T21:27:45.249Z,98772.14
2019-02-11T21:30:15.331Z,98790.92
2019-02-11T21:32:43.631Z,98791.55
2019-02-11T21:35:13.018Z,98791.23
2019-02-11T21:37:41.423Z,98797.20
2019-02-11T21:40:09.809Z,98798.79
2019-02-11T21:42:38.180Z,98800.30
2019-02-11T21:45:11.786Z,98812.22
2019-02-11T21:47:40.458Z,98819.15
2019-02-11T21:50:14.640Z,98820.59
2019-02-11T21:52:43.008Z,98830.88
2019-02-11T21:55:13.664Z,98828.85
2019-02-11T21:57:41.959Z,98786.58
2019-02-11T22:00:13.398Z,98825.38
2019-02-11T22:02:41.696Z,98829.23
2019-02-11T22:05:10.281Z,98825.45
2019-02-11T22:07:38.666Z,98815.44
2019-02-11T22:10:13.090Z,98816.99
2019-02-11T22:12:41.391Z,98836.73
2019-02-11T22:15:11.551Z,98840.11
2019-02-11T22:17:39.849Z,98867.52
2019-02-11T22:20:16.809Z,98881.91
2019-02-11T22:22:45.239Z,98867.27
2019-02-11T22:25:14.324Z,98866.80
2019-02-11T22:27:42.704Z,98875.56
2019-02-11T22:30:22.078Z,98883.95
2019-02-11T22:32:50.379Z,98869.39
2019-02-11T22:35:19.143Z,98871.80
2019-02-11T22:37:49.577Z,98898.53
2019-02-11T22:40:18.066Z,98886.95
2019-02-11T22:42:46.416Z,98882.78
2019-02-11T22:45:20.296Z,98883.28
2019-02-11T22:47:48.667Z,98894.30
2019-02-11T22:50:17.053Z,98891.83
2019-02-11T22:52:45.348Z,98888.78
2019-02-11T22:55:15.020Z,98908.14
2019-02-11T22:57:43.458Z,98904.20
2019-02-11T23:00:40.940Z,98922.61
2019-02-11T23:03:09.310Z,98925.91
2019-02-11T23:05:37.740Z,98941.61
2019-02-11T23:08:06.415Z,98941.23
2019-02-11T23:10:35.083Z,98949.97
2019-02-11T23:13:03.378Z,98955.09
2019-02-11T23:15:31.692Z,98968.77
2019-02-11T23:17:59.993Z,98955.83
2019-02-11T23:20:28.438Z,98961.63
2019-02-11T23:22:56.764Z,98957.14
2019-02-11T23:25:25.132Z,98967.48
2019-02-11T23:27:53.449Z,98971.89
2019-02-11T23:30:21.813Z,98961.25
2019-02-11T23:32:50.126Z,98967.22
2019-02-11T23:35:18.442Z,98974.24
2019-02-11T23:37:46.766Z,98995.11
2019-02-11T23:40:15.075Z,98967.76
2019-02-11T23:42:44.456Z,98977.72
2019-02-11T23:45:12.752Z,98984.08
2019-02-11T23:47:41.069Z,98987.43
2019-02-11T23:50:11.400Z,98994.11
2019-02-11T23:52:39.782Z,98985.16
2019-02-11T23:55:11.157Z,98991.69
2019-02-11T23:57:39.542Z,98991.75
